»·PEaware :: N24DM KVNY-KSNA

N24DM :: KVNY-KSNA

FLIGHT INFORMATION

Flight Status: Arrived
Operator: Privately registered:
United States
More flights under this callsign
Pilot: Dave M. (4986)
Aircraft: SOCATA TBM-900
(TBM9)
More flights by this aircraft type
Origin: KVNY Van Nuys
United States
Destination: KSNA John Wayne-Orange Co
United States
More flights between these airports :: More routes between these airports
Route: +ADAMM2 ADAMM V186 BAYJY V363 POXKU V8 SLI
File this flight plan on PilotEdge
Remarks: TEC BURP23
Altitude:
(Current/Filed)
5,000ft
Speed:
(Current/Filed)
250kts
Departed: 06-Dec-18 10:07 AM
Arrived: 06-Dec-18 10:36 AM
Distance/Time
Traveled:
45nm/0:28
Distance/Time
To Go:
Arrived

Flight Plot

Page will automatically refresh every two minutes.


Map Options




Map Legend


Flown Route
Filed Route
Departure Airport
Arrival Airport
Navaid (VOR, NDB)
Fix

Horizontal Profiles

Position Reports

Time Latitude Longitude Heading Altitude Ground
Speed
06-Dec-18 09:48 34.203162 -118.491335 353 805ft 0kts
06-Dec-18 09:49 34.203162 -118.491335 353 805ft 0kts
06-Dec-18 09:50 34.203162 -118.491335 353 805ft 0kts
06-Dec-18 09:51 34.203162 -118.491335 353 805ft 0kts
06-Dec-18 09:52 34.203162 -118.491335 353 805ft 0kts
06-Dec-18 09:53 34.203162 -118.491335 353 805ft 0kts
06-Dec-18 09:54 34.203162 -118.491335 353 805ft 0kts
06-Dec-18 09:55 34.203162 -118.491335 353 805ft 0kts
06-Dec-18 09:56 34.203162 -118.491335 353 805ft 0kts
06-Dec-18 09:57 34.203162 -118.491335 353 805ft 0kts
06-Dec-18 09:58 34.203162 -118.491335 353 805ft 0kts
06-Dec-18 09:59 34.203162 -118.491335 353 805ft 0kts
06-Dec-18 10:00 34.203166 -118.491335 353 805ft 0kts
06-Dec-18 10:01 34.203166 -118.491335 353 805ft 0kts
06-Dec-18 10:02 34.202518 -118.490738 167 805ft 11kts
06-Dec-18 10:03 34.200802 -118.490330 175 805ft 9kts
06-Dec-18 10:04 34.197531 -118.490053 175 805ft 12kts
06-Dec-18 10:05 34.197136 -118.489918 124 805ft 0kts
06-Dec-18 10:06 34.198645 -118.489316 353 805ft 64kts
06-Dec-18 10:07 34.219609 -118.512275 265 2499ft 164kts
06-Dec-18 10:08 34.212022 -118.567235 264 4067ft 185kts
06-Dec-18 10:09 34.176948 -118.600915 152 4803ft 225kts
06-Dec-18 10:10 34.121532 -118.559638 122 4968ft 249kts
06-Dec-18 10:11 34.112993 -118.478416 92 5018ft 243kts
06-Dec-18 10:12 34.109574 -118.399213 91 5025ft 233kts
06-Dec-18 10:13 34.107849 -118.321843 91 5035ft 231kts
06-Dec-18 10:14 34.105746 -118.244860 89 5024ft 230kts
06-Dec-18 10:15 34.104009 -118.169598 89 5031ft 217kts
06-Dec-18 10:16 34.103310 -118.100975 91 4994ft 197kts
06-Dec-18 10:17 34.087158 -118.039197 113 4960ft 192kts
06-Dec-18 10:18 34.067351 -117.979791 111 4972ft 191kts
06-Dec-18 10:19 34.048811 -117.919670 110 4971ft 192kts
06-Dec-18 10:20 34.030173 -117.859263 110 4973ft 192kts
06-Dec-18 10:21 34.011560 -117.799140 110 4977ft 193kts
06-Dec-18 10:22 33.961492 -117.784525 175 4348ft 210kts
06-Dec-18 10:23 33.905374 -117.783439 175 3965ft 194kts
06-Dec-18 10:24 33.862422 -117.812376 221 3967ft 195kts
06-Dec-18 10:25 33.880236 -117.854996 24 3343ft 204kts
06-Dec-18 10:26 33.906747 -117.810472 61 2954ft 142kts
06-Dec-18 10:27 33.908767 -117.770028 121 2978ft 133kts
06-Dec-18 10:28 33.876314 -117.758340 185 2979ft 141kts
06-Dec-18 10:29 33.837862 -117.767689 186 2973ft 140kts
06-Dec-18 10:30 33.803501 -117.787941 200 2718ft 129kts
06-Dec-18 10:31 33.775141 -117.805949 200 2121ft 115kts
06-Dec-18 10:32 33.743704 -117.825879 201 1435ft 133kts
06-Dec-18 10:33 33.713162 -117.845179 200 773ft 122kts
06-Dec-18 10:34 33.685583 -117.862580 197 188ft 97kts
06-Dec-18 10:35 33.669787 -117.872147 159 59ft 18kts
06-Dec-18 10:36 33.668879 -117.871300 172 59ft 10kts
06-Dec-18 10:37 33.665989 -117.872972 147 59ft 4kts

Navigation Log

Ident Type
Flight plan parsing failed, navigation log unavailable